This is the latest recevied weather packets stored in our database for station/object K3RUP-1. If no packets are shown the sender has not sent any weather packets the latest 10 day(s).
| Time | Temp. | Humidity | Pressure | Rain* | Wind** | Luminosity | Snow |
|---|---|---|---|---|---|---|---|
| 1777749904 | 15.56° C | 45% | 1011.5 hPa | 0 mm | - | 205 W/m² | - |
| 1777749603 | 16.67° C | 41% | 1011.4 hPa | 0 mm | - | 212 W/m² | - |
| 1777749299 | 16.11° C | 42% | 1011.5 hPa | 0 mm | - | 402 W/m² | - |
| 1777748997 | 15.56° C | 43% | 1011.6 hPa | 0 mm | - | 197 W/m² | - |
| 1777748694 | 15.56° C | 44% | 1011.9 hPa | 0 mm | - | 168 W/m² | - |
| 1777748390 | 16.67° C | 42% | 1011.7 hPa | 0 mm | - | 203 W/m² | - |
| 1777748086 | 16.11° C | 40% | 1012 hPa | 0 mm | - | 517 W/m² | - |
| 1777747782 | 16.11° C | 41% | 1011.9 hPa | 0 mm | - | 278 W/m² | - |
| 1777747472 | 15.56° C | 42% | 1012.2 hPa | 0 mm | - | 611 W/m² | - |
| 1777747169 | 15.56° C | 42% | 1012 hPa | 0 mm | - | 616 W/m² | - |
| 1777746865 | 15° C | 44% | 1012.3 hPa | 0 mm | - | 164 W/m² | - |
| 1777746561 | 15.56° C | 39% | 1012.3 hPa | 0 mm | - | 173 W/m² | - |
| 1777746257 | 15.56° C | 45% | 1012.4 hPa | 0 mm | - | 567 W/m² | - |
| 1777745953 | 15° C | 41% | 1012.9 hPa | 0 mm | - | 609 W/m² | - |
| 1777745652 | 15.56° C | 43% | 1012.7 hPa | 0 mm | - | 197 W/m² | - |
| 1777745349 | 15.56° C | 42% | 1012.5 hPa | 0 mm | - | 599 W/m² | - |
| 1777745046 | 15° C | 45% | 1012.8 hPa | 0 mm | - | 683 W/m² | - |
| 1777744736 | 16.11° C | 44% | 1012.6 hPa | 0 mm | - | 563 W/m² | - |
| 1777744430 | 16.11° C | 43% | 1012.6 hPa | 0 mm | - | 711 W/m² | - |
| 1777744128 | 15° C | 47% | 1012.6 hPa | 0 mm | - | 762 W/m² | - |
| 1777743824 | 15° C | 45% | 1012.9 hPa | 0 mm | - | 741 W/m² | - |
| 1777743521 | 15° C | 48% | 1013 hPa | 0 mm | - | 656 W/m² | - |
| 1777743218 | 15° C | 49% | 1012.9 hPa | 0 mm | - | 789 W/m² | - |
| 1777742916 | 13.89° C | 52% | 1013 hPa | 0 mm | - | 667 W/m² | - |
| 1777742613 | 15° C | 51% | 1013 hPa | 0 mm | - | 376 W/m² | - |
* Rain latest hour (hover to see other rain measurements)
** Current wind speed in m/s (hover to see current wind gust speed)